Brisbane - nearby METAR Reports

YBBN - Brisbane Intl Ar, Australia
Distance from station: NNE 11km
Updated: 11/08/2020 23:30
Clear
Clear
 Wind from SSW
Wind: SSW 7 km/h
Temperature: 13°C
Dew Point: 11°C
Humidity: 88%
Barometer: 1019 hPa
Summary: Clear
Visibility: greater than 10 km
2020/08/11 13:30 YBBN 111330Z 21004KT CAVOK 13/11 Q1019
YAMB - Amberley, Australia
Distance from station: WSW 42km
Updated: 11/08/2020 23:30
Clear
Clear
 Wind from calm
Wind: Calm
Temperature: 10°C
Dew Point: 10°C
Humidity: 100%
Barometer: 1018 hPa
Clouds: Clear
Visibility: 10 km
2020/08/11 13:30 YAMB 111330Z AUTO 00000KT 9999 // NCD 10/10 Q1018
 
YBCG - Coolangatta Aws, Australia
Distance from station: SSE 102km
Updated: 11/08/2020 23:30
Partly cloudy
Partly cloudy
 Wind from SW
Wind: SW 7 km/h
Temperature: 14°C
Dew Point: 12°C
Humidity: 88%
Barometer: 1018 hPa
Clouds: Partly cloudy
Visibility: 10 km
Cloud details: Partly cloudy 2103 m
2020/08/11 13:30 YBCG 111330Z AUTO 23004KT 9999 // SCT069 14/12 Q1018 RF00.0/000.0

Cumulus logo AWN logo WOW logo PWS logo WU logo AWEKAS logo